Time;durP1;ratioP1;P1;durP2;ratioP2;P2;SDS_P1;SDS_P2;PMS_P1;PMS_P2;Temp;Humidity;BMP_temperature;BMP_pressure;BME280_temperature;BME280_humidity;BME280_pressure;Samples;Min_cycle;Max_cycle;Signal;HPM_P1;HPM_P2
2021/12/04 00:01:41;;;;;;;2.55;2.08;;;20.40;46.60;;;;;;6196325;28;20022;-69
2021/12/04 00:04:46;;;;;;;2.22;2.00;;;20.40;46.70;;;;;;6206191;28;20032;-70
2021/12/04 00:07:47;;;;;;;2.75;1.90;;;20.40;46.70;;;;;;6206282;28;20023;-69
2021/12/04 00:10:48;;;;;;;2.92;2.00;;;20.40;46.70;;;;;;6172100;28;20034;-69
2021/12/04 00:13:48;;;;;;;2.83;2.10;;;20.40;46.70;;;;;;6185762;28;20439;-70
2021/12/04 00:16:49;;;;;;;2.28;1.90;;;20.40;46.70;;;;;;6195986;28;20046;-70
2021/12/04 00:19:50;;;;;;;2.15;1.90;;;20.40;47.40;;;;;;6173045;28;20069;-71
2021/12/04 00:22:56;;;;;;;2.85;2.05;;;20.40;46.80;;;;;;6175161;28;20022;-69
2021/12/04 00:25:57;;;;;;;2.50;1.83;;;20.40;46.70;;;;;;6195797;28;20022;-72
2021/12/04 00:28:57;;;;;;;2.33;2.00;;;20.40;46.80;;;;;;6193530;28;20089;-70
2021/12/04 00:32:02;;;;;;;2.05;1.70;;;20.40;46.70;;;;;;6195306;28;20034;-69
2021/12/04 00:35:16;;;;;;;2.40;1.98;;;20.40;46.70;;;;;;6195362;28;20026;-70
2021/12/04 00:51:24;;;;;;;2.33;1.65;;;20.40;46.70;;;;;;6170598;28;20105;-70
2021/12/04 00:54:27;;;;;;;2.47;2.00;;;20.40;46.70;;;;;;6194564;28;20033;-70
2021/12/04 00:57:28;;;;;;;2.70;2.08;;;20.40;46.70;;;;;;6194950;28;20029;-69
2021/12/04 01:00:29;;;;;;;2.47;1.80;;;20.40;46.80;;;;;;6195110;28;20439;-70
2021/12/04 01:03:29;;;;;;;2.13;1.70;;;20.50;46.80;;;;;;6210077;28;20065;-70
2021/12/04 01:06:30;;;;;;;1.88;1.67;;;20.40;46.80;;;;;;6219596;28;20042;-70
2021/12/04 01:09:31;;;;;;;2.38;1.65;;;20.40;46.80;;;;;;6217974;28;20072;-69
2021/12/04 01:12:31;;;;;;;2.30;1.90;;;20.40;46.80;;;;;;6217839;28;20025;-69
2021/12/04 01:15:32;;;;;;;2.88;2.05;;;20.40;46.80;;;;;;6219226;28;20101;-70
2021/12/04 01:18:34;;;;;;;3.08;2.17;;;20.40;46.70;;;;;;6219248;28;20030;-69
2021/12/04 01:21:34;;;;;;;2.85;1.83;;;20.40;46.80;;;;;;6218170;28;20022;-69
2021/12/04 01:24:35;;;;;;;1.67;1.55;;;20.40;46.80;;;;;;6191948;28;20034;-70
2021/12/04 01:27:37;;;;;;;1.95;1.67;;;20.40;46.80;;;;;;6194705;28;20030;-70
2021/12/04 01:30:38;;;;;;;2.30;1.90;;;20.40;46.80;;;;;;6186904;28;20027;-70
2021/12/04 01:33:39;;;;;;;1.95;1.75;;;20.40;46.80;;;;;;6192419;28;20037;-69
2021/12/04 01:36:40;;;;;;;1.98;1.40;;;20.40;46.80;;;;;;6198502;28;20034;-69
2021/12/04 01:39:41;;;;;;;2.30;1.75;;;20.40;46.80;;;;;;6218855;28;20092;-70
2021/12/04 01:42:41;;;;;;;2.40;1.85;;;20.40;46.80;;;;;;6207126;28;20026;-69
2021/12/04 01:45:42;;;;;;;2.30;1.90;;;20.40;47.00;;;;;;6194644;28;20054;-67
2021/12/04 01:48:42;;;;;;;2.13;1.63;;;20.40;46.90;;;;;;6193713;28;20026;-67
2021/12/04 01:51:43;;;;;;;2.80;2.03;;;20.40;46.90;;;;;;6198280;28;20061;-67
2021/12/04 01:54:46;;;;;;;2.95;2.05;;;20.40;46.80;;;;;;6170530;28;20789;-69
2021/12/04 01:57:46;;;;;;;2.05;1.60;;;20.40;46.90;;;;;;6188753;28;20037;-65
2021/12/04 02:00:47;;;;;;;2.28;1.80;;;20.40;47.00;;;;;;6220576;28;20479;-68
2021/12/04 02:03:48;;;;;;;2.13;1.60;;;20.40;46.90;;;;;;6223936;28;20667;-65
2021/12/04 02:06:49;;;;;;;3.13;2.00;;;20.40;46.90;;;;;;6223505;28;20041;-68
2021/12/04 02:09:49;;;;;;;2.13;1.52;;;20.40;46.90;;;;;;6216381;28;20037;-68
2021/12/04 02:12:51;;;;;;;2.45;1.80;;;20.40;47.00;;;;;;6204163;28;20109;-67
2021/12/04 02:15:53;;;;;;;1.70;1.60;;;20.40;47.00;;;;;;6202932;28;20046;-66
2021/12/04 02:18:53;;;;;;;1.67;1.50;;;20.40;46.90;;;;;;6223854;28;20021;-69
2021/12/04 02:21:54;;;;;;;1.88;1.58;;;20.40;47.00;;;;;;6222780;28;20022;-70
2021/12/04 02:24:55;;;;;;;1.90;1.50;;;20.40;46.90;;;;;;6221208;28;20038;-68
2021/12/04 02:27:55;;;;;;;1.65;1.45;;;20.40;46.90;;;;;;6198920;28;20023;-68
2021/12/04 02:30:56;;;;;;;2.30;1.73;;;20.40;47.00;;;;;;6189284;28;20029;-73
2021/12/04 02:33:57;;;;;;;2.15;1.77;;;20.40;46.90;;;;;;6174685;28;20105;-70
2021/12/04 02:36:58;;;;;;;2.65;1.83;;;20.40;46.90;;;;;;6180944;28;20022;-70
2021/12/04 02:40:00;;;;;;;2.45;1.90;;;20.40;47.00;;;;;;6198089;28;20030;-69
2021/12/04 02:43:01;;;;;;;2.13;1.60;;;20.40;47.00;;;;;;6198269;28;20022;-69
2021/12/04 02:46:03;;;;;;;1.95;1.50;;;20.40;47.00;;;;;;6198049;28;20026;-70
2021/12/04 02:49:05;;;;;;;2.25;1.58;;;20.40;47.10;;;;;;6220049;28;20030;-68
2021/12/04 02:52:08;;;;;;;2.33;1.90;;;20.40;47.10;;;;;;6216687;28;20502;-69
2021/12/04 02:55:09;;;;;;;2.58;1.70;;;20.40;47.10;;;;;;6197731;28;20062;-68
2021/12/04 02:58:12;;;;;;;2.40;1.90;;;20.40;47.10;;;;;;6197693;28;20072;-69
2021/12/04 03:01:13;;;;;;;2.38;1.67;;;20.40;47.10;;;;;;6198079;28;20018;-69
2021/12/04 03:04:14;;;;;;;1.90;1.60;;;20.40;47.80;;;;;;6218488;28;20391;-70
2021/12/04 03:07:15;;;;;;;2.15;1.90;;;20.40;47.10;;;;;;6213861;28;20031;-69
2021/12/04 03:10:16;;;;;;;1.67;1.58;;;20.40;47.20;;;;;;6173567;28;20073;-69
2021/12/04 03:13:19;;;;;;;2.38;1.60;;;20.40;47.10;;;;;;6195885;28;20033;-69
2021/12/04 03:16:20;;;;;;;2.20;1.80;;;20.40;47.20;;;;;;6221525;28;20463;-69
2021/12/04 03:19:20;;;;;;;2.03;1.75;;;20.40;47.20;;;;;;6202200;28;20073;-70
2021/12/04 03:22:23;;;;;;;2.00;1.58;;;20.40;47.20;;;;;;6193342;28;20069;-68
2021/12/04 03:25:24;;;;;;;2.10;1.70;;;20.40;47.20;;;;;;6171699;28;20073;-70
2021/12/04 03:28:25;;;;;;;2.03;1.60;;;20.30;47.10;;;;;;6173172;28;20023;-69
2021/12/04 03:41:12;;;;;;;2.17;1.58;;;20.40;47.20;;;;;;6220769;28;20025;-69
2021/12/04 03:44:13;;;;;;;2.20;1.55;;;20.40;47.20;;;;;;6197024;28;20399;-70
2021/12/04 03:47:14;;;;;;;1.80;1.58;;;20.40;47.20;;;;;;6196361;28;20034;-69
2021/12/04 03:50:15;;;;;;;2.40;1.67;;;20.30;47.00;;;;;;6196899;28;20458;-70
2021/12/04 03:53:15;;;;;;;2.58;1.70;;;20.40;47.20;;;;;;6181815;28;20045;-69
2021/12/04 03:56:20;;;;;;;2.13;1.55;;;20.30;47.20;;;;;;6172469;28;20041;-69
2021/12/04 04:03:18;;;;;;;1.70;1.55;;;20.30;47.10;;;;;;6196596;28;20031;-69
2021/12/04 04:06:18;;;;;;;2.10;1.65;;;20.30;47.10;;;;;;6196612;28;20042;-69
2021/12/04 04:09:19;;;;;;;1.95;1.50;;;20.30;47.10;;;;;;6194778;28;20838;-69
2021/12/04 04:12:20;;;;;;;1.77;1.58;;;20.40;47.30;;;;;;6196415;28;20034;-68
2021/12/04 04:15:22;;;;;;;1.52;1.35;;;20.30;47.10;;;;;;6195853;28;20096;-69
2021/12/04 04:18:22;;;;;;;1.30;1.20;;;20.30;47.10;;;;;;6195865;28;20401;-70
2021/12/04 04:21:23;;;;;;;1.70;1.40;;;20.40;47.30;;;;;;6196285;28;20026;-69
2021/12/04 04:24:29;;;;;;;2.08;1.50;;;20.30;47.10;;;;;;6195145;28;20022;-69
2021/12/04 04:27:29;;;;;;;1.85;1.35;;;20.30;47.10;;;;;;6175802;28;20049;-69
2021/12/04 04:30:30;;;;;;;2.88;1.58;;;20.30;47.20;;;;;;6171763;28;20563;-69
2021/12/04 04:33:36;;;;;;;1.52;1.33;;;20.30;47.20;;;;;;6178075;28;20861;-69
2021/12/04 05:02:34;;;;;;;1.48;1.30;;;20.30;47.20;;;;;;6200478;28;20083;-71
2021/12/04 05:18:58;;;;;;;1.73;1.27;;;20.30;47.20;;;;;;6206310;28;20069;-69
2021/12/04 05:21:59;;;;;;;1.80;1.40;;;20.30;47.00;;;;;;6201199;28;20735;-68
2021/12/04 05:25:00;;;;;;;1.50;1.20;;;20.30;47.00;;;;;;6194589;28;20030;-69
2021/12/04 05:28:00;;;;;;;1.45;1.23;;;20.40;47.10;;;;;;6177537;28;20046;-69
2021/12/04 05:31:01;;;;;;;1.60;1.42;;;20.40;47.10;;;;;;6180510;28;20070;-69
2021/12/04 05:34:02;;;;;;;1.52;1.23;;;20.40;47.10;;;;;;6193744;28;20041;-69
2021/12/04 05:37:03;;;;;;;1.27;1.02;;;20.40;47.10;;;;;;6207032;28;20506;-69
2021/12/04 05:40:10;;;;;;;1.42;1.25;;;20.40;47.00;;;;;;6222679;28;20030;-69
2021/12/04 05:43:11;;;;;;;1.75;1.30;;;20.40;47.00;;;;;;6198841;28;20119;-69
2021/12/04 05:46:15;;;;;;;1.30;1.20;;;20.40;46.90;;;;;;6175044;28;20022;-69
2021/12/04 05:49:20;;;;;;;1.80;1.33;;;20.40;46.90;;;;;;6222308;28;20037;-69
2021/12/04 05:55:54;;;;;;;1.27;1.10;;;20.40;46.90;;;;;;6199083;28;20026;-70
2021/12/04 05:58:54;;;;;;;1.20;1.10;;;20.40;46.90;;;;;;6216885;28;20189;-69
2021/12/04 06:01:56;;;;;;;2.03;1.52;;;20.40;46.80;;;;;;6203979;28;20031;-68
2021/12/04 06:04:57;;;;;;;1.55;1.25;;;20.40;46.90;;;;;;6174867;28;20030;-70
2021/12/04 06:07:57;;;;;;;1.55;1.25;;;20.40;46.90;;;;;;6178679;28;20061;-68
2021/12/04 06:10:58;;;;;;;2.13;0.90;;;20.40;46.90;;;;;;6199419;28;20498;-69
2021/12/04 06:13:59;;;;;;;2.25;1.55;;;20.40;46.90;;;;;;6211313;28;20038;-69
2021/12/04 06:17:00;;;;;;;1.80;1.27;;;20.40;46.90;;;;;;6222760;28;20089;-70
2021/12/04 06:23:20;;;;;;;1.67;1.17;;;20.40;46.80;;;;;;6216854;28;20038;-69
2021/12/04 06:26:21;;;;;;;1.60;1.17;;;20.40;46.90;;;;;;6184153;28;20630;-69
2021/12/04 06:29:24;;;;;;;1.48;1.08;;;20.40;46.80;;;;;;6174312;28;20023;-68
2021/12/04 06:32:24;;;;;;;1.23;1.08;;;20.40;46.80;;;;;;6195782;28;20038;-69
2021/12/04 06:35:25;;;;;;;1.38;1.10;;;20.40;46.80;;;;;;6197972;28;20050;-68
2021/12/04 06:38:26;;;;;;;1.42;1.17;;;20.40;46.80;;;;;;6198268;28;20041;-68
2021/12/04 06:41:27;;;;;;;1.30;1.08;;;20.40;46.80;;;;;;6198244;28;20022;-69
2021/12/04 06:44:28;;;;;;;1.30;1.20;;;20.40;46.80;;;;;;6222433;28;20025;-69
2021/12/04 06:47:30;;;;;;;1.98;1.23;;;20.40;46.90;;;;;;6211811;28;20061;-69
2021/12/04 06:50:45;;;;;;;1.30;1.15;;;20.40;46.90;;;;;;6198036;28;20019;-69
2021/12/04 06:53:51;;;;;;;1.47;1.17;;;20.40;46.90;;;;;;6216460;28;20033;-69
2021/12/04 06:56:52;;;;;;;1.30;1.10;;;20.40;46.80;;;;;;6217640;28;20031;-69
2021/12/04 06:59:54;;;;;;;1.55;1.15;;;20.40;46.80;;;;;;6197818;28;20042;-68
2021/12/04 07:02:55;;;;;;;1.58;1.35;;;20.40;46.80;;;;;;6197546;28;20046;-68
2021/12/04 07:05:56;;;;;;;1.27;1.13;;;20.40;46.80;;;;;;6197573;28;20034;-68
2021/12/04 07:08:58;;;;;;;1.10;1.00;;;20.40;46.90;;;;;;6205491;28;20022;-69
2021/12/04 07:12:01;;;;;;;1.10;1.00;;;20.40;46.90;;;;;;6220646;28;20014;-68
2021/12/04 07:15:02;;;;;;;1.42;1.13;;;20.40;46.80;;;;;;6196695;28;20046;-70
2021/12/04 07:18:03;;;;;;;1.75;1.33;;;20.40;46.90;;;;;;6206061;28;20025;-68
2021/12/04 07:21:05;;;;;;;1.10;1.00;;;20.40;46.90;;;;;;6221209;28;20053;-68
2021/12/04 07:24:05;;;;;;;1.50;1.10;;;20.40;46.80;;;;;;6221583;28;20030;-68
2021/12/04 07:27:06;;;;;;;1.30;1.20;;;20.40;46.90;;;;;;6220972;28;20028;-69
2021/12/04 07:30:07;;;;;;;1.63;1.27;;;20.40;46.80;;;;;;6217950;28;20395;-69
2021/12/04 07:33:08;;;;;;;1.17;0.90;;;20.40;46.80;;;;;;6179587;28;20089;-68
2021/12/04 07:36:08;;;;;;;1.33;1.05;;;20.40;46.90;;;;;;6171490;28;20027;-72
2021/12/04 07:39:09;;;;;;;1.58;1.17;;;20.40;46.80;;;;;;6172231;28;20031;-69
2021/12/04 07:42:10;;;;;;;1.48;1.10;;;20.40;46.80;;;;;;6179878;28;20050;-69
2021/12/04 07:45:11;;;;;;;1.40;1.10;;;20.40;46.80;;;;;;6195176;28;20113;-69
2021/12/04 07:48:11;;;;;;;1.48;1.20;;;20.40;46.90;;;;;;6219465;28;20082;-69
2021/12/04 07:51:14;;;;;;;1.60;1.00;;;20.40;46.90;;;;;;6219567;28;20038;-69
2021/12/04 07:54:15;;;;;;;1.25;1.08;;;20.40;46.90;;;;;;6198084;28;20428;-68
2021/12/04 07:57:16;;;;;;;1.27;1.05;;;20.40;46.90;;;;;;6196260;28;20037;-69
2021/12/04 08:00:19;;;;;;;1.40;1.10;;;20.40;46.90;;;;;;6195016;28;20027;-69
2021/12/04 08:03:20;;;;;;;2.08;1.48;;;20.40;46.90;;;;;;6209626;28;20029;-69
2021/12/04 08:06:21;;;;;;;1.60;1.20;;;20.40;46.90;;;;;;6220513;28;20018;-69
2021/12/04 08:09:22;;;;;;;1.42;0.90;;;20.40;46.90;;;;;;6203497;28;20077;-69
2021/12/04 08:12:22;;;;;;;1.30;1.20;;;20.40;46.80;;;;;;6196257;28;20030;-70
2021/12/04 08:15:23;;;;;;;1.67;1.13;;;20.40;46.90;;;;;;6190059;28;20555;-69
2021/12/04 08:18:23;;;;;;;1.20;1.10;;;20.40;47.00;;;;;;6201865;28;20438;-68
2021/12/04 08:21:25;;;;;;;0.98;0.82;;;20.40;46.90;;;;;;6220313;28;20038;-70
2021/12/04 08:24:26;;;;;;;1.23;1.10;;;20.40;46.80;;;;;;6195958;28;20129;-70
2021/12/04 08:27:26;;;;;;;1.08;0.95;;;20.40;46.90;;;;;;6182090;28;20084;-69
2021/12/04 08:30:33;;;;;;;1.33;1.05;;;20.40;46.90;;;;;;6177807;28;20030;-69
2021/12/04 08:33:34;;;;;;;1.23;1.02;;;20.40;46.90;;;;;;6175154;28;20110;-68
2021/12/04 08:36:35;;;;;;;1.23;1.00;;;20.40;46.90;;;;;;6171287;28;20134;-69
2021/12/04 08:39:35;;;;;;;1.33;1.10;;;20.40;47.00;;;;;;6190836;28;20502;-70
2021/12/04 08:42:40;;;;;;;1.17;1.08;;;20.40;46.90;;;;;;6184494;28;20019;-70
2021/12/04 08:45:42;;;;;;;1.10;1.00;;;20.40;46.90;;;;;;6170901;28;20598;-70
2021/12/04 08:48:42;;;;;;;1.38;1.00;;;20.40;46.90;;;;;;6209239;28;20050;-70
2021/12/04 08:51:43;;;;;;;1.27;1.10;;;20.40;46.90;;;;;;6217541;28;20157;-69
2021/12/04 08:54:44;;;;;;;1.77;1.02;;;20.40;46.90;;;;;;6195255;28;20038;-69
2021/12/04 08:57:45;;;;;;;1.13;0.98;;;20.40;46.90;;;;;;6195312;28;20027;-69
2021/12/04 09:00:51;;;;;;;1.08;0.90;;;20.40;46.90;;;;;;6195293;28;20118;-70
2021/12/04 09:04:06;;;;;;;1.10;1.00;;;20.40;46.90;;;;;;6195079;28;20027;-70
2021/12/04 09:07:08;;;;;;;1.40;1.00;;;20.40;46.90;;;;;;6198165;28;20021;-70
2021/12/04 09:10:10;;;;;;;1.25;0.90;;;20.40;46.90;;;;;;6219067;28;20620;-69
2021/12/04 09:13:12;;;;;;;1.20;1.08;;;20.40;46.90;;;;;;6208471;28;20031;-70
2021/12/04 09:16:15;;;;;;;1.27;1.10;;;20.40;46.90;;;;;;6194727;28;20730;-69
2021/12/04 09:19:16;;;;;;;1.60;1.10;;;20.40;46.90;;;;;;6195000;28;20150;-70
2021/12/04 09:22:25;;;;;;;1.38;1.05;;;20.40;47.00;;;;;;6193179;28;20555;-70
2021/12/04 09:25:28;;;;;;;1.40;1.08;;;20.50;47.00;;;;;;6189317;28;20034;-70
2021/12/04 09:28:41;;;;;;;1.20;1.00;;;20.50;47.00;;;;;;6211519;28;20411;-70
2021/12/04 09:35:23;;;;;;;0.77;0.75;;;20.50;47.10;;;;;;6194463;28;20412;-67
2021/12/04 10:04:50;;;;;;;1.10;1.00;;;20.50;47.30;;;;;;6208924;28;20033;-68
2021/12/04 10:18:56;;;;;;;1.33;0.98;;;20.50;47.50;;;;;;6193474;28;20026;-68
2021/12/04 10:21:48;;;;;;;1.40;1.20;;;20.50;47.40;;;;;;6190363;28;20030;-68
2021/12/04 10:35:10;;;;;;;1.45;1.17;;;20.50;47.50;;;;;;6222524;28;20026;-69
2021/12/04 10:38:19;;;;;;;1.42;1.00;;;20.50;47.50;;;;;;6217990;28;20072;-69
2021/12/04 10:41:31;;;;;;;1.05;0.90;;;20.50;47.50;;;;;;6186309;28;20034;-68
2021/12/04 10:44:38;;;;;;;1.02;0.90;;;20.50;47.50;;;;;;6193003;28;20022;-67
2021/12/04 10:47:54;;;;;;;1.40;1.00;;;20.50;47.70;;;;;;6201188;28;20476;-68
2021/12/04 10:54:26;;;;;;;6.90;2.42;;;20.40;46.60;;;;;;6200470;28;20061;-68
2021/12/04 11:04:16;;;;;;;4.82;3.35;;;20.40;44.30;;;;;;6195920;28;20103;-69
2021/12/04 11:37:08;;;;;;;6.10;1.92;;;20.40;45.10;;;;;;6207108;28;20023;-70
2021/12/04 11:40:27;;;;;;;2.50;1.70;;;20.50;45.20;;;;;;6195988;28;20254;-70
2021/12/04 11:43:48;;;;;;;2.75;1.63;;;20.40;45.30;;;;;;6212364;28;20558;-69
2021/12/04 11:46:56;;;;;;;3.83;2.03;;;20.50;45.50;;;;;;6212335;28;20032;-70
2021/12/04 11:49:57;;;;;;;3.25;1.67;;;20.50;45.50;;;;;;6194182;28;20500;-69
2021/12/04 11:53:06;;;;;;;2.20;1.63;;;20.50;45.60;;;;;;6198539;28;20065;-69
2021/12/04 11:56:14;;;;;;;1.83;1.48;;;20.50;45.60;;;;;;6194505;28;20026;-70
2021/12/04 11:59:24;;;;;;;2.25;1.73;;;20.50;45.60;;;;;;6198383;28;20018;-70
2021/12/04 12:02:25;;;;;;;2.95;1.70;;;20.50;45.60;;;;;;6211702;28;20028;-69
2021/12/04 12:05:26;;;;;;;1.90;1.60;;;20.50;45.70;;;;;;6194634;28;20030;-69
2021/12/04 12:08:42;;;;;;;1.50;1.35;;;20.50;45.70;;;;;;6191174;28;20044;-67
2021/12/04 12:11:55;;;;;;;2.38;1.50;;;20.50;45.70;;;;;;6193472;28;20030;-67
2021/12/04 12:14:58;;;;;;;2.17;1.77;;;20.50;46.00;;;;;;6200893;28;20046;-68
2021/12/04 12:18:21;;;;;;;3.08;1.73;;;20.50;45.60;;;;;;6202140;28;20014;-68
2021/12/04 12:21:28;;;;;;;3.58;2.40;;;20.50;45.10;;;;;;6209891;28;20061;-68
2021/12/04 12:37:49;;;;;;;3.58;2.15;;;20.40;42.90;;;;;;6199051;28;20038;-69
2021/12/04 12:41:27;;;;;;;3.47;2.10;;;20.50;43.00;;;;;;6189208;28;20060;-69
2021/12/04 12:44:30;;;;;;;2.42;1.80;;;20.50;43.10;;;;;;6183942;28;20030;-70
2021/12/04 12:47:32;;;;;;;1.73;1.55;;;20.50;42.90;;;;;;6192570;28;20109;-69
2021/12/04 12:50:40;;;;;;;1.92;1.50;;;20.50;42.30;;;;;;6194946;28;20081;-70
2021/12/04 12:53:45;;;;;;;1.90;1.48;;;20.50;42.20;;;;;;6193968;28;20031;-69
2021/12/04 12:56:47;;;;;;;1.58;1.38;;;20.50;42.30;;;;;;6194512;28;20022;-69
2021/12/04 13:12:53;;;;;;;109.22;8.85;;;20.60;43.20;;;;;;6195458;28;20534;-69
2021/12/04 13:16:00;;;;;;;75.70;6.95;;;20.60;43.30;;;;;;6194032;28;20132;-69
2021/12/04 13:19:09;;;;;;;69.03;6.68;;;20.60;43.30;;;;;;6198001;28;20097;-69
2021/12/04 13:22:14;;;;;;;61.72;4.43;;;20.60;43.40;;;;;;6194455;28;20050;-70
2021/12/04 13:25:15;;;;;;;30.98;3.67;;;20.60;43.50;;;;;;6201751;28;20321;-69
2021/12/04 13:28:23;;;;;;;17.52;2.83;;;20.60;43.60;;;;;;6193632;28;20038;-70
2021/12/04 13:31:24;;;;;;;26.75;3.80;;;20.60;43.70;;;;;;6193876;28;20088;-69
2021/12/04 13:34:28;;;;;;;15.77;3.10;;;20.60;43.70;;;;;;6204478;28;20022;-69
2021/12/04 13:37:30;;;;;;;10.55;2.80;;;20.60;43.80;;;;;;6197324;28;20034;-70
2021/12/04 13:40:30;;;;;;;13.38;2.85;;;20.60;43.90;;;;;;6202828;28;20048;-69
2021/12/04 13:43:31;;;;;;;15.25;2.63;;;20.60;44.00;;;;;;6206967;28;20078;-69
2021/12/04 13:47:03;;;;;;;14.65;2.45;;;20.60;44.20;;;;;;6191163;28;20530;-68
2021/12/04 13:53:34;;;;;;;35.42;3.38;;;20.60;44.30;;;;;;6200933;28;20026;-68
2021/12/04 13:56:35;;;;;;;56.80;5.22;;;20.60;44.30;;;;;;6194967;28;20024;-69
2021/12/04 13:59:36;;;;;;;80.85;4.78;;;20.60;44.40;;;;;;6236769;28;20022;-68
2021/12/04 14:02:37;;;;;;;141.32;7.75;;;20.60;44.50;;;;;;6196367;28;20500;-69
2021/12/04 14:05:39;;;;;;;60.20;6.75;;;20.60;44.60;;;;;;6197108;28;20076;-68
2021/12/04 14:08:40;;;;;;;57.00;5.65;;;20.60;44.70;;;;;;6199854;28;20033;-69
2021/12/04 14:11:41;;;;;;;59.78;4.57;;;20.60;44.90;;;;;;6197841;28;20053;-69
2021/12/04 14:14:41;;;;;;;38.85;3.95;;;20.60;45.10;;;;;;6206561;28;20484;-68
2021/12/04 14:17:43;;;;;;;21.63;2.85;;;20.60;45.10;;;;;;6217573;28;20399;-69
2021/12/04 14:20:48;;;;;;;24.95;3.13;;;20.60;45.10;;;;;;6196093;28;20028;-69
2021/12/04 14:23:49;;;;;;;18.08;3.38;;;20.60;45.10;;;;;;6194588;28;20122;-68
2021/12/04 14:26:54;;;;;;;15.48;2.60;;;20.60;45.00;;;;;;6199941;28;20038;-68
2021/12/04 14:30:05;;;;;;;17.80;2.80;;;20.60;45.10;;;;;;6211061;28;20076;-68
2021/12/04 14:33:09;;;;;;;8.98;2.80;;;20.60;45.10;;;;;;6194887;28;20027;-69
2021/12/04 14:36:11;;;;;;;11.32;2.75;;;20.60;45.10;;;;;;6199056;28;20027;-71
2021/12/04 14:39:22;;;;;;;8.75;2.30;;;20.60;45.10;;;;;;6209501;28;20090;-69
2021/12/04 14:42:29;;;;;;;10.93;2.47;;;20.60;45.10;;;;;;6193911;28;20480;-68
2021/12/04 14:45:33;;;;;;;16.45;3.42;;;20.60;45.20;;;;;;6205617;28;20030;-69
2021/12/04 14:48:38;;;;;;;9.07;2.50;;;20.60;45.20;;;;;;6205819;28;20022;-69
2021/12/04 14:51:39;;;;;;;7.00;2.30;;;20.60;45.20;;;;;;6196038;28;20041;-69
2021/12/04 14:54:42;;;;;;;10.13;2.90;;;20.60;45.30;;;;;;6196594;28;20073;-69
2021/12/04 14:57:43;;;;;;;15.57;1.90;;;20.60;45.40;;;;;;6196227;28;20030;-68
2021/12/04 15:00:59;;;;;;;12.27;2.42;;;20.60;45.50;;;;;;6197088;28;20022;-70
2021/12/04 15:04:03;;;;;;;8.77;2.30;;;20.60;45.60;;;;;;6203218;28;20026;-69
2021/12/04 15:07:03;;;;;;;6.10;1.83;;;20.60;45.50;;;;;;6196499;28;20022;-69
2021/12/04 15:10:18;;;;;;;6.55;2.25;;;20.60;45.50;;;;;;6196031;28;20061;-69
2021/12/04 15:13:24;;;;;;;7.60;2.20;;;20.60;45.30;;;;;;6198950;28;20099;-69
2021/12/04 15:16:34;;;;;;;11.27;1.98;;;20.60;44.80;;;;;;6194348;28;20053;-69
2021/12/04 15:19:45;;;;;;;3.90;1.83;;;20.60;44.80;;;;;;6195489;28;20081;-69
2021/12/04 15:22:54;;;;;;;4.55;1.80;;;20.60;44.90;;;;;;6193420;28;20057;-69
2021/12/04 15:25:56;;;;;;;7.68;2.03;;;20.60;45.10;;;;;;6196539;28;20022;-69
2021/12/04 15:28:57;;;;;;;5.88;2.30;;;20.60;45.10;;;;;;6204358;28;20022;-69
2021/12/04 15:32:01;;;;;;;7.80;1.98;;;20.60;45.80;;;;;;6208488;28;20088;-68
2021/12/04 15:35:34;;;;;;;4.60;1.90;;;20.60;45.80;;;;;;6188326;28;20484;-69
2021/12/04 15:38:49;;;;;;;4.43;1.50;;;20.60;45.20;;;;;;6213115;28;20033;-69
2021/12/04 15:42:10;;;;;;;3.65;1.70;;;20.60;45.20;;;;;;6201277;28;20062;-68
2021/12/04 15:48:40;;;;;;;11.90;1.75;;;20.60;46.00;;;;;;6206260;28;20086;-69
2021/12/04 15:54:57;;;;;;;10.02;2.08;;;20.60;45.30;;;;;;6199859;28;20030;-68
2021/12/04 15:58:01;;;;;;;16.75;2.20;;;20.60;45.30;;;;;;6218786;28;20030;-68
2021/12/04 16:01:07;;;;;;;6.25;2.08;;;20.60;45.60;;;;;;6218134;28;20026;-67
2021/12/04 16:04:23;;;;;;;12.45;2.20;;;20.60;45.50;;;;;;6196961;28;20113;-67
2021/12/04 16:07:27;;;;;;;4.80;2.10;;;20.60;44.20;;;;;;6194047;28;20057;-67
2021/12/04 16:10:29;;;;;;;6.10;1.67;;;20.60;43.40;;;;;;6233941;28;20026;-67
2021/12/04 16:13:35;;;;;;;11.30;1.67;;;20.60;43.40;;;;;;6207538;28;20421;-67
2021/12/04 16:16:41;;;;;;;10.65;1.75;;;20.70;44.80;;;;;;6194403;28;20042;-67
2021/12/04 16:19:46;;;;;;;10.30;2.15;;;20.70;44.80;;;;;;6210744;28;20075;-67
2021/12/04 16:22:49;;;;;;;18.80;1.95;;;20.70;45.10;;;;;;6218490;28;20101;-67
2021/12/04 16:25:50;;;;;;;8.15;1.63;;;20.70;45.40;;;;;;6212988;28;20035;-67
2021/12/04 16:32:28;;;;;;;4.18;1.50;;;20.70;45.10;;;;;;6205286;28;20523;-67
2021/12/04 16:38:34;;;;;;;8.15;1.65;;;20.60;45.30;;;;;;6215903;28;20494;-67
2021/12/04 16:41:35;;;;;;;3.78;1.60;;;20.70;45.20;;;;;;6174339;28;20015;-66
2021/12/04 16:44:38;;;;;;;5.43;1.70;;;20.60;45.10;;;;;;6197534;28;20033;-67
2021/12/04 16:47:45;;;;;;;6.78;1.85;;;20.60;45.10;;;;;;6212560;28;20030;-67
2021/12/04 17:00:45;;;;;;;2.88;1.50;;;20.60;45.10;;;;;;6218446;28;20030;-66
2021/12/04 17:03:47;;;;;;;3.05;1.30;;;20.60;45.20;;;;;;6204478;28;20072;-66
2021/12/04 17:06:50;;;;;;;4.93;1.70;;;20.60;45.20;;;;;;6192991;28;20030;-66
2021/12/04 17:09:51;;;;;;;2.22;1.30;;;20.60;45.20;;;;;;6216310;28;20040;-66
2021/12/04 17:12:52;;;;;;;4.30;1.48;;;20.60;45.30;;;;;;6217829;28;20049;-67
2021/12/04 17:15:54;;;;;;;2.45;1.42;;;20.60;45.30;;;;;;6194385;28;20047;-66
2021/12/04 17:19:08;;;;;;;1.75;1.17;;;20.60;45.30;;;;;;6199764;28;20036;-67
2021/12/04 17:22:09;;;;;;;3.47;1.73;;;20.60;45.30;;;;;;6193790;28;20098;-66
2021/12/04 17:25:10;;;;;;;2.35;1.23;;;20.60;45.30;;;;;;6215990;28;20091;-66
2021/12/04 17:28:13;;;;;;;4.00;1.30;;;20.70;45.40;;;;;;6218830;28;20072;-66
2021/12/04 17:31:16;;;;;;;1.55;1.25;;;20.60;45.40;;;;;;6199994;28;20069;-67
2021/12/04 17:34:17;;;;;;;1.52;1.13;;;20.60;45.40;;;;;;6236123;28;20049;-66
2021/12/04 17:37:18;;;;;;;3.30;1.20;;;20.60;45.40;;;;;;6211417;28;20079;-67
2021/12/04 17:40:19;;;;;;;2.40;1.10;;;20.60;45.50;;;;;;6189915;28;20113;-66
2021/12/04 17:43:19;;;;;;;3.15;1.30;;;20.60;45.60;;;;;;6204701;28;20105;-66
2021/12/04 17:46:21;;;;;;;1.60;1.08;;;20.60;45.50;;;;;;6205382;28;20454;-67
2021/12/04 17:49:23;;;;;;;1.88;1.20;;;20.60;45.50;;;;;;6222681;28;20495;-66
2021/12/04 17:52:24;;;;;;;2.10;1.27;;;20.60;45.60;;;;;;6208771;28;20026;-66
2021/12/04 17:55:26;;;;;;;1.58;1.13;;;20.60;45.60;;;;;;6222634;28;20048;-66
2021/12/04 17:58:27;;;;;;;2.13;1.38;;;20.60;46.30;;;;;;6222266;28;20361;-66
2021/12/04 18:01:34;;;;;;;2.35;1.30;;;20.60;45.60;;;;;;6210939;28;20022;-66
2021/12/04 18:04:38;;;;;;;1.40;1.10;;;20.60;45.60;;;;;;6199812;28;20031;-66
2021/12/04 18:07:39;;;;;;;1.80;1.45;;;20.60;45.70;;;;;;6198702;28;20092;-66
2021/12/04 18:10:40;;;;;;;2.42;1.20;;;20.60;45.70;;;;;;6198981;28;20030;-67
2021/12/04 18:13:45;;;;;;;1.55;1.10;;;20.60;46.00;;;;;;6204943;28;20484;-66
2021/12/04 18:16:49;;;;;;;1.77;1.20;;;20.60;45.80;;;;;;6199449;28;20038;-66
2021/12/04 18:19:51;;;;;;;1.52;1.00;;;20.60;45.80;;;;;;6218418;28;20399;-67
2021/12/04 18:22:53;;;;;;;2.08;1.17;;;20.60;45.90;;;;;;6221776;28;20022;-66
2021/12/04 18:25:55;;;;;;;1.40;1.00;;;20.60;45.90;;;;;;6219931;28;20041;-67
2021/12/04 18:28:55;;;;;;;2.15;1.20;;;20.60;45.90;;;;;;6221813;28;20022;-66
2021/12/04 18:31:56;;;;;;;1.85;1.20;;;20.60;46.00;;;;;;6186672;28;20030;-66
2021/12/04 18:34:57;;;;;;;2.00;1.15;;;20.50;45.90;;;;;;6209275;28;20101;-66
2021/12/04 18:37:59;;;;;;;1.67;1.13;;;20.50;45.90;;;;;;6236762;28;20022;-66
2021/12/04 18:41:00;;;;;;;1.75;1.10;;;20.50;46.00;;;;;;6221703;28;20053;-66
2021/12/04 18:44:03;;;;;;;1.20;1.00;;;20.60;46.00;;;;;;6214556;28;20114;-67
2021/12/04 18:47:04;;;;;;;1.65;0.95;;;20.50;46.00;;;;;;6220574;28;20036;-67
2021/12/04 18:50:07;;;;;;;1.17;0.93;;;20.50;46.00;;;;;;6212014;28;20031;-66
2021/12/04 18:53:08;;;;;;;1.27;1.05;;;20.60;46.10;;;;;;6208900;28;20604;-66
2021/12/04 18:56:10;;;;;;;1.63;1.20;;;20.60;46.10;;;;;;6201858;28;20027;-66
2021/12/04 18:59:11;;;;;;;1.30;1.00;;;20.50;46.00;;;;;;6217479;28;20072;-66
2021/12/04 19:02:19;;;;;;;1.23;1.02;;;20.50;46.00;;;;;;6221862;28;20105;-67
2021/12/04 19:05:19;;;;;;;1.10;0.90;;;20.50;46.00;;;;;;6198952;28;20026;-67
2021/12/04 19:08:21;;;;;;;1.60;1.08;;;20.50;46.00;;;;;;6202978;28;20037;-67
2021/12/04 19:11:24;;;;;;;1.45;1.15;;;20.50;46.10;;;;;;6220813;28;20037;-66
2021/12/04 19:14:26;;;;;;;1.80;1.20;;;20.50;46.10;;;;;;6198195;28;20034;-66
2021/12/04 19:17:28;;;;;;;1.10;0.93;;;20.50;46.10;;;;;;6196056;28;20050;-66
2021/12/04 19:20:29;;;;;;;1.65;1.25;;;20.50;46.10;;;;;;6196363;28;20029;-66
2021/12/04 19:23:31;;;;;;;1.25;1.13;;;20.50;46.10;;;;;;6203731;28;20387;-66
2021/12/04 19:26:33;;;;;;;0.93;0.77;;;20.50;46.10;;;;;;6219866;28;20026;-66
2021/12/04 19:29:43;;;;;;;1.02;0.90;;;20.50;46.20;;;;;;6220211;28;20026;-66